Time;durP1;ratioP1;P1;durP2;ratioP2;P2;SDS_P1;SDS_P2;PMS_P1;PMS_P2;Temp;Humidity;BMP_temperature;BMP_pressure;BME280_temperature;BME280_humidity;BME280_pressure;Samples;Min_cycle;Max_cycle;Signal;HPM_P1;HPM_P2
2021/07/28 00:02:06;;;;;;;0.73;0.70;;;23.50;55.40;;;;;;5102283;28;20040;-43
2021/07/28 00:04:33;;;;;;;0.70;0.70;;;23.40;55.50;;;;;;5084018;28;20039;-42
2021/07/28 00:06:59;;;;;;;0.68;0.60;;;23.40;55.50;;;;;;5101537;28;20020;-42
2021/07/28 00:09:25;;;;;;;0.90;0.60;;;23.40;55.60;;;;;;5102329;28;20158;-42
2021/07/28 00:11:51;;;;;;;0.85;0.68;;;23.40;55.60;;;;;;5099123;28;20077;-42
2021/07/28 00:14:18;;;;;;;0.70;0.60;;;23.30;55.60;;;;;;5079926;28;20032;-42
2021/07/28 00:16:44;;;;;;;1.00;0.68;;;23.30;55.60;;;;;;5099931;28;20054;-43
2021/07/28 00:19:16;;;;;;;0.93;0.70;;;23.30;55.70;;;;;;5100271;28;20031;-43
2021/07/28 00:24:31;;;;;;;0.60;0.47;;;23.20;55.80;;;;;;5098522;28;20031;-42
2021/07/28 00:26:59;;;;;;;0.70;0.60;;;23.10;55.70;;;;;;5100399;28;20028;-43
2021/07/28 00:29:26;;;;;;;0.52;0.45;;;23.10;55.80;;;;;;5101135;28;20096;-42
2021/07/28 00:31:52;;;;;;;0.80;0.57;;;23.10;56.00;;;;;;5100507;28;20028;-42
2021/07/28 00:34:18;;;;;;;0.77;0.60;;;23.00;55.90;;;;;;5099373;28;20043;-43
2021/07/28 00:36:44;;;;;;;0.73;0.70;;;23.00;55.90;;;;;;5101906;28;20157;-41
2021/07/28 00:39:10;;;;;;;0.70;0.60;;;23.00;55.90;;;;;;5102362;28;20031;-43
2021/07/28 00:41:43;;;;;;;0.63;0.60;;;22.90;55.80;;;;;;5101664;28;20055;-42
2021/07/28 00:44:10;;;;;;;0.93;0.50;;;22.90;55.80;;;;;;5101543;28;20063;-42
2021/07/28 00:46:36;;;;;;;0.90;0.80;;;22.90;56.10;;;;;;5101836;28;20032;-42
2021/07/28 00:49:02;;;;;;;0.50;0.50;;;22.80;55.90;;;;;;5101922;28;20053;-43
2021/07/28 00:51:29;;;;;;;0.90;0.65;;;22.80;56.00;;;;;;5083529;28;20050;-43
2021/07/28 00:53:56;;;;;;;0.77;0.60;;;22.80;56.10;;;;;;5101139;28;20032;-41
2021/07/28 00:56:22;;;;;;;0.60;0.52;;;22.80;55.90;;;;;;5101157;28;20044;-42
2021/07/28 00:58:48;;;;;;;0.82;0.63;;;22.80;56.00;;;;;;5083021;28;20028;-42
2021/07/28 01:01:15;;;;;;;0.47;0.47;;;22.80;56.00;;;;;;5100872;28;20130;-42
2021/07/28 01:03:42;;;;;;;0.55;0.50;;;22.70;56.00;;;;;;5083783;28;20020;-41
2021/07/28 01:06:09;;;;;;;0.70;0.50;;;22.70;56.10;;;;;;5101453;28;20032;-43
2021/07/28 01:08:36;;;;;;;0.60;0.52;;;22.60;56.00;;;;;;5083422;28;20156;-42
2021/07/28 01:11:04;;;;;;;0.60;0.50;;;22.60;56.10;;;;;;5100526;28;20024;-41
2021/07/28 01:13:31;;;;;;;0.75;0.60;;;22.60;56.30;;;;;;5101128;28;20020;-42
2021/07/28 01:16:14;;;;;;;0.50;0.40;;;22.70;56.80;;;;;;5101042;28;20035;-41
2021/07/28 01:18:40;;;;;;;0.85;0.50;;;22.80;57.10;;;;;;5083618;28;20060;-43
2021/07/28 01:21:07;;;;;;;0.63;0.50;;;22.80;57.80;;;;;;5073340;28;20021;-46
2021/07/28 01:23:33;;;;;;;0.82;0.60;;;22.90;58.10;;;;;;5072088;28;20219;-42
2021/07/28 01:26:00;;;;;;;0.65;0.60;;;22.90;58.20;;;;;;5101903;28;20028;-42
2021/07/28 01:28:27;;;;;;;0.90;0.50;;;22.90;58.20;;;;;;5103980;28;20028;-43
2021/07/28 01:31:16;;;;;;;0.40;0.40;;;22.90;58.30;;;;;;5105105;28;20119;-42
2021/07/28 01:33:43;;;;;;;0.70;0.70;;;22.90;58.20;;;;;;5105508;28;20062;-43
2021/07/28 01:36:14;;;;;;;0.70;0.50;;;22.90;58.50;;;;;;5105319;28;20113;-42
2021/07/28 01:38:41;;;;;;;0.60;0.50;;;23.00;59.00;;;;;;5105076;28;20051;-42
2021/07/28 01:41:07;;;;;;;0.77;0.50;;;23.00;59.20;;;;;;5104916;28;20515;-41
2021/07/28 01:43:34;;;;;;;0.70;0.50;;;23.00;59.10;;;;;;5086970;28;20198;-41
2021/07/28 01:46:01;;;;;;;0.63;0.60;;;23.00;59.10;;;;;;5104085;28;20044;-40
2021/07/28 01:48:27;;;;;;;0.80;0.40;;;23.00;59.30;;;;;;5104788;28;20031;-41
2021/07/28 01:50:56;;;;;;;0.85;0.68;;;23.10;59.40;;;;;;5104928;28;20032;-41
2021/07/28 01:53:23;;;;;;;0.90;0.65;;;23.10;59.40;;;;;;5104602;28;20020;-41
2021/07/28 01:55:49;;;;;;;0.70;0.60;;;23.10;59.50;;;;;;5104778;28;20032;-42
2021/07/28 01:58:18;;;;;;;0.68;0.50;;;23.10;59.50;;;;;;5104926;28;20068;-40
2021/07/28 02:00:44;;;;;;;1.02;0.60;;;23.10;59.50;;;;;;5104638;28;20056;-42
2021/07/28 02:03:10;;;;;;;0.57;0.57;;;23.10;59.70;;;;;;5104442;28;20377;-42
2021/07/28 02:05:37;;;;;;;0.95;0.60;;;23.10;59.80;;;;;;5104892;28;20032;-42
2021/07/28 02:08:05;;;;;;;;;;;23.10;59.80;;;;;;5104385;28;20024;-41
2021/07/28 02:10:44;;;;;;;0.83;0.73;;;23.10;59.90;;;;;;5103520;28;19912;-42
2021/07/28 02:13:10;;;;;;;1.15;0.85;;;23.10;59.90;;;;;;5104452;28;20028;-41
2021/07/28 02:15:36;;;;;;;0.70;0.68;;;23.10;59.90;;;;;;5104795;28;20079;-41
2021/07/28 02:18:03;;;;;;;0.70;0.63;;;23.10;59.90;;;;;;5104447;28;20045;-43
2021/07/28 02:20:29;;;;;;;0.70;0.60;;;23.10;60.00;;;;;;5099631;28;20017;-42
2021/07/28 02:22:55;;;;;;;0.70;0.50;;;23.10;60.00;;;;;;5083925;28;20032;-40
2021/07/28 02:25:21;;;;;;;0.88;0.80;;;23.20;60.20;;;;;;5098757;28;20031;-42
2021/07/28 02:27:48;;;;;;;1.33;0.75;;;23.10;60.20;;;;;;5085673;28;20059;-41
2021/07/28 02:30:16;;;;;;;0.73;0.47;;;23.20;60.30;;;;;;5103990;28;20036;-42
2021/07/28 02:32:42;;;;;;;0.80;0.50;;;23.20;60.40;;;;;;5103850;28;20024;-41
2021/07/28 02:35:09;;;;;;;0.77;0.68;;;23.20;60.40;;;;;;5104186;28;20085;-42
2021/07/28 02:37:35;;;;;;;0.70;0.70;;;23.20;60.60;;;;;;5085915;28;20034;-41
2021/07/28 02:40:02;;;;;;;0.93;0.53;;;23.20;60.70;;;;;;5102609;28;20447;-42
2021/07/28 02:42:28;;;;;;;0.60;0.60;;;23.20;60.70;;;;;;5102502;28;20036;-41
2021/07/28 02:44:54;;;;;;;0.70;0.68;;;23.20;60.70;;;;;;5103796;28;20594;-42
2021/07/28 02:47:20;;;;;;;0.75;0.73;;;23.20;60.80;;;;;;5085538;28;20095;-42
2021/07/28 02:49:46;;;;;;;0.70;0.70;;;23.20;60.80;;;;;;5103349;28;20028;-43
2021/07/28 02:52:12;;;;;;;0.90;0.70;;;23.20;60.90;;;;;;5112360;28;20027;-41
2021/07/28 02:54:39;;;;;;;0.60;0.60;;;23.20;60.90;;;;;;5124218;28;20487;-41
2021/07/28 02:57:05;;;;;;;0.80;0.70;;;23.20;60.90;;;;;;5124190;28;20061;-42
2021/07/28 02:59:31;;;;;;;0.70;0.50;;;23.30;61.00;;;;;;5107085;28;20035;-42
2021/07/28 03:01:57;;;;;;;0.65;0.60;;;23.20;61.00;;;;;;5082391;28;20108;-42
2021/07/28 03:04:23;;;;;;;1.30;0.75;;;23.30;61.10;;;;;;5083174;28;20029;-42
2021/07/28 03:06:50;;;;;;;0.75;0.70;;;23.30;61.10;;;;;;5082991;28;20028;-41
2021/07/28 03:09:16;;;;;;;1.67;0.70;;;23.30;61.10;;;;;;5083266;28;20043;-41
2021/07/28 03:11:42;;;;;;;1.20;0.68;;;23.30;61.20;;;;;;5083357;28;20464;-41
2021/07/28 03:14:08;;;;;;;0.77;0.50;;;23.30;61.20;;;;;;5082083;28;20035;-42
2021/07/28 03:16:34;;;;;;;1.10;0.70;;;23.30;61.20;;;;;;5082419;28;20079;-42
2021/07/28 03:19:00;;;;;;;0.50;0.50;;;23.30;61.40;;;;;;5082512;28;20096;-42
2021/07/28 03:21:26;;;;;;;0.70;0.70;;;23.30;61.30;;;;;;5069788;28;20040;-42
2021/07/28 03:23:53;;;;;;;0.80;0.60;;;23.30;61.30;;;;;;5076984;28;20024;-43
2021/07/28 03:26:19;;;;;;;1.02;0.75;;;23.30;61.30;;;;;;5082853;28;20036;-43
2021/07/28 03:28:45;;;;;;;0.77;0.65;;;23.30;61.30;;;;;;5072504;28;20492;-43
2021/07/28 03:31:11;;;;;;;1.08;0.80;;;23.30;61.40;;;;;;5062980;28;20029;-41
2021/07/28 03:33:37;;;;;;;0.90;0.85;;;23.30;61.40;;;;;;5067507;28;20028;-43
2021/07/28 03:36:03;;;;;;;0.93;0.80;;;23.40;61.40;;;;;;5082445;28;20064;-41
2021/07/28 03:38:30;;;;;;;0.80;0.70;;;23.30;61.50;;;;;;5082310;28;20081;-41
2021/07/28 03:40:56;;;;;;;1.45;0.88;;;23.30;61.50;;;;;;5082234;28;20033;-42
2021/07/28 03:43:22;;;;;;;0.90;0.80;;;23.40;61.60;;;;;;5082496;28;20028;-41
2021/07/28 03:45:48;;;;;;;0.77;0.63;;;23.40;61.60;;;;;;5082387;28;20084;-42
2021/07/28 03:48:14;;;;;;;1.52;0.90;;;23.40;61.60;;;;;;5082224;28;20118;-42
2021/07/28 03:50:40;;;;;;;0.70;0.70;;;23.40;61.50;;;;;;5082317;28;20053;-43
2021/07/28 03:53:07;;;;;;;1.70;0.82;;;23.40;61.60;;;;;;5082614;28;20037;-43
2021/07/28 03:55:33;;;;;;;0.88;0.80;;;23.40;61.60;;;;;;5082538;28;20032;-42
2021/07/28 03:57:59;;;;;;;0.93;0.70;;;23.40;61.60;;;;;;5082117;28;20024;-42
2021/07/28 04:00:25;;;;;;;1.30;0.93;;;23.40;61.60;;;;;;5089033;28;20050;-42
2021/07/28 04:02:51;;;;;;;1.10;1.00;;;23.40;61.80;;;;;;5102771;28;20870;-43
2021/07/28 04:05:17;;;;;;;1.10;0.80;;;23.40;61.70;;;;;;5102542;28;20039;-43
2021/07/28 04:07:45;;;;;;;1.10;0.90;;;23.40;61.80;;;;;;5102397;28;20032;-41
2021/07/28 04:10:12;;;;;;;1.58;0.90;;;23.40;61.80;;;;;;5102680;28;20028;-42
2021/07/28 04:12:38;;;;;;;0.80;0.73;;;23.40;61.90;;;;;;5102546;28;20024;-43
2021/07/28 04:15:05;;;;;;;1.40;1.00;;;23.40;61.90;;;;;;5102273;28;20265;-41
2021/07/28 04:17:31;;;;;;;1.00;0.82;;;23.40;61.90;;;;;;5102340;28;20043;-43
2021/07/28 04:19:59;;;;;;;0.73;0.70;;;23.40;61.90;;;;;;5100992;28;20081;-41
2021/07/28 04:22:26;;;;;;;1.45;0.88;;;23.40;61.90;;;;;;5086711;28;20028;-42
2021/07/28 04:24:52;;;;;;;0.80;0.70;;;23.40;62.00;;;;;;5102408;28;20020;-42
2021/07/28 04:27:18;;;;;;;0.90;0.70;;;23.40;62.00;;;;;;5102303;28;20039;-41
2021/07/28 04:29:44;;;;;;;1.73;0.80;;;23.40;61.90;;;;;;5101631;28;20058;-43
2021/07/28 04:32:10;;;;;;;1.50;0.77;;;23.40;61.90;;;;;;5101906;28;20031;-42
2021/07/28 04:34:37;;;;;;;0.90;0.80;;;23.40;61.90;;;;;;5102254;28;20087;-43
2021/07/28 04:37:03;;;;;;;1.17;0.90;;;23.40;61.90;;;;;;5102154;28;20096;-43
2021/07/28 04:39:33;;;;;;;1.58;0.95;;;23.40;61.90;;;;;;5102224;28;20081;-42
2021/07/28 04:41:59;;;;;;;1.90;0.93;;;23.40;62.00;;;;;;5102410;28;20024;-44
2021/07/28 04:44:25;;;;;;;1.10;0.90;;;23.40;62.10;;;;;;5101728;28;20158;-43
2021/07/28 04:46:51;;;;;;;0.70;0.70;;;23.40;62.30;;;;;;5102328;28;20064;-43
2021/07/28 04:49:18;;;;;;;0.82;0.77;;;23.40;62.20;;;;;;5098759;28;20035;-43
2021/07/28 04:51:44;;;;;;;1.17;1.00;;;23.40;62.40;;;;;;5102091;28;20037;-42
2021/07/28 04:54:10;;;;;;;0.82;0.80;;;23.40;62.30;;;;;;5102222;28;20092;-43
2021/07/28 04:56:36;;;;;;;1.25;0.82;;;23.40;62.40;;;;;;5101829;28;20047;-43
2021/07/28 04:59:02;;;;;;;1.40;0.80;;;23.40;62.40;;;;;;5101298;28;20024;-42
2021/07/28 05:01:29;;;;;;;0.98;0.88;;;23.40;62.50;;;;;;5102116;28;20052;-43
2021/07/28 05:03:55;;;;;;;1.38;1.10;;;23.40;62.60;;;;;;5105062;28;20032;-43
2021/07/28 05:06:21;;;;;;;0.90;0.88;;;23.40;63.40;;;;;;5105825;28;20758;-43
2021/07/28 05:08:47;;;;;;;1.02;0.90;;;23.40;62.50;;;;;;5104804;28;20111;-43
2021/07/28 05:11:13;;;;;;;1.13;1.02;;;23.40;62.40;;;;;;5106036;28;20046;-42
2021/07/28 05:13:39;;;;;;;1.58;1.10;;;23.40;62.30;;;;;;5104757;28;20036;-43
2021/07/28 05:16:06;;;;;;;1.02;0.88;;;23.40;62.30;;;;;;5104634;28;20032;-42
2021/07/28 05:18:32;;;;;;;1.23;0.90;;;23.40;62.20;;;;;;5105451;28;20031;-43
2021/07/28 05:20:58;;;;;;;1.00;0.90;;;23.40;62.10;;;;;;5099424;28;20028;-43
2021/07/28 05:23:25;;;;;;;1.60;0.80;;;23.40;62.20;;;;;;5105377;28;20036;-42
2021/07/28 05:25:51;;;;;;;1.02;0.90;;;23.40;62.20;;;;;;5105674;28;20042;-43
2021/07/28 05:28:17;;;;;;;0.95;0.80;;;23.40;62.30;;;;;;5105350;28;20032;-43
2021/07/28 05:30:43;;;;;;;1.13;0.80;;;23.40;62.30;;;;;;5104748;28;20077;-42
2021/07/28 05:33:09;;;;;;;3.50;1.00;;;23.40;62.30;;;;;;5105636;28;20024;-43
2021/07/28 05:35:35;;;;;;;0.95;0.70;;;23.40;62.30;;;;;;5105091;28;20043;-42
2021/07/28 05:38:02;;;;;;;1.00;0.90;;;23.40;62.30;;;;;;5087149;28;20077;-42
2021/07/28 05:40:29;;;;;;;1.17;0.80;;;23.40;62.30;;;;;;5105079;28;20016;-43
2021/07/28 05:42:55;;;;;;;1.40;0.98;;;23.40;62.40;;;;;;5105101;28;20032;-43
2021/07/28 05:45:21;;;;;;;1.13;1.02;;;23.40;62.40;;;;;;5104929;28;20028;-43
2021/07/28 05:47:47;;;;;;;1.60;1.10;;;23.40;62.50;;;;;;5105242;28;20028;-42
2021/07/28 05:50:14;;;;;;;2.38;1.10;;;23.40;62.50;;;;;;5104218;28;20018;-43
2021/07/28 05:52:40;;;;;;;1.20;0.90;;;23.40;62.60;;;;;;5104639;28;20097;-43
2021/07/28 05:55:07;;;;;;;1.67;1.05;;;23.40;62.70;;;;;;5104860;28;20028;-43
2021/07/28 05:57:33;;;;;;;1.17;0.93;;;23.40;62.60;;;;;;5104905;28;20036;-43
2021/07/28 05:59:59;;;;;;;2.10;1.20;;;23.40;62.50;;;;;;5104251;28;20040;-43
2021/07/28 06:02:26;;;;;;;1.48;0.68;;;23.40;62.60;;;;;;5104607;28;20043;-43
2021/07/28 06:04:52;;;;;;;1.02;1.00;;;23.40;62.60;;;;;;5104756;28;20034;-42
2021/07/28 06:07:18;;;;;;;1.30;1.10;;;23.40;62.60;;;;;;5104835;28;20021;-42
2021/07/28 06:09:44;;;;;;;1.27;1.10;;;23.40;62.70;;;;;;5104209;28;20020;-42
2021/07/28 06:12:10;;;;;;;0.93;0.90;;;23.40;62.70;;;;;;5104600;28;20051;-42
2021/07/28 06:14:36;;;;;;;1.65;0.93;;;23.40;62.70;;;;;;5104550;28;20032;-43
2021/07/28 06:17:05;;;;;;;1.30;1.10;;;23.40;62.80;;;;;;5104629;28;20369;-42
2021/07/28 06:19:31;;;;;;;1.05;0.93;;;23.40;62.90;;;;;;5104606;28;20454;-43
2021/07/28 06:21:57;;;;;;;1.05;0.70;;;23.40;62.80;;;;;;5104472;28;20032;-43
2021/07/28 06:24:23;;;;;;;1.27;1.00;;;23.40;62.90;;;;;;5104859;28;20565;-42
2021/07/28 06:26:49;;;;;;;1.08;0.93;;;23.40;62.80;;;;;;5104674;28;20028;-42
2021/07/28 06:29:16;;;;;;;1.27;1.02;;;23.40;62.80;;;;;;5104546;28;20049;-42
2021/07/28 06:31:42;;;;;;;1.27;1.10;;;23.40;62.80;;;;;;5104168;28;20028;-43
2021/07/28 06:34:08;;;;;;;0.73;0.70;;;23.40;62.90;;;;;;5104652;28;20047;-43
2021/07/28 06:36:36;;;;;;;1.80;1.08;;;23.40;62.90;;;;;;5104333;28;20047;-42
2021/07/28 06:39:03;;;;;;;1.17;1.00;;;23.40;63.00;;;;;;5104209;28;20024;-42
2021/07/28 06:41:29;;;;;;;1.02;0.90;;;23.40;63.10;;;;;;5104053;28;20089;-43
2021/07/28 06:43:55;;;;;;;1.20;1.02;;;23.40;63.80;;;;;;5104187;28;20100;-42
2021/07/28 06:46:21;;;;;;;1.17;1.00;;;23.40;63.20;;;;;;5104272;28;20035;-43
2021/07/28 06:48:47;;;;;;;1.17;1.08;;;23.40;63.30;;;;;;5099144;28;20028;-43
2021/07/28 06:51:14;;;;;;;1.48;1.10;;;23.40;63.30;;;;;;5103083;28;20032;-43
2021/07/28 06:53:40;;;;;;;1.13;0.95;;;23.40;63.30;;;;;;5104084;28;20518;-43
2021/07/28 06:56:06;;;;;;;1.13;0.95;;;23.40;63.30;;;;;;5103889;28;20035;-43
2021/07/28 06:58:33;;;;;;;1.20;1.00;;;23.40;63.30;;;;;;5104128;28;20020;-43
2021/07/28 07:01:00;;;;;;;1.00;0.90;;;23.40;63.30;;;;;;5103430;28;20407;-43
2021/07/28 07:03:26;;;;;;;1.30;0.90;;;23.40;63.40;;;;;;5103656;28;20043;-42
2021/07/28 07:05:52;;;;;;;1.13;1.00;;;23.40;63.40;;;;;;5103819;28;20103;-43
2021/07/28 07:08:21;;;;;;;1.10;0.95;;;23.40;63.50;;;;;;5103684;28;20101;-42
2021/07/28 07:10:48;;;;;;;1.35;1.25;;;23.40;63.50;;;;;;5103261;28;20024;-43
2021/07/28 07:13:14;;;;;;;1.25;1.05;;;23.40;63.50;;;;;;5103803;28;20040;-43
2021/07/28 07:15:40;;;;;;;1.30;1.20;;;23.40;63.50;;;;;;5103463;28;20051;-42
2021/07/28 07:18:06;;;;;;;3.47;1.23;;;23.40;63.60;;;;;;5093303;28;20028;-42
2021/07/28 07:20:32;;;;;;;1.58;1.10;;;23.40;63.50;;;;;;5082862;28;20020;-41
2021/07/28 07:22:58;;;;;;;1.40;1.20;;;23.40;63.60;;;;;;5083359;28;20091;-43
2021/07/28 07:25:24;;;;;;;1.15;1.00;;;23.40;63.60;;;;;;5092850;28;20032;-43
2021/07/28 07:27:50;;;;;;;1.00;0.90;;;23.40;63.60;;;;;;5103682;28;20028;-43
2021/07/28 07:30:17;;;;;;;4.18;1.38;;;23.40;63.70;;;;;;5103003;28;20032;-43
2021/07/28 07:32:43;;;;;;;1.47;1.10;;;23.40;63.70;;;;;;5099991;28;20027;-42
2021/07/28 07:35:10;;;;;;;1.70;1.27;;;23.40;63.60;;;;;;5102728;28;20340;-43
2021/07/28 07:37:36;;;;;;;1.60;1.20;;;23.40;63.80;;;;;;5103315;28;20059;-43
2021/07/28 07:40:02;;;;;;;1.95;1.15;;;23.40;63.80;;;;;;5103099;28;20261;-42
2021/07/28 07:42:28;;;;;;;1.40;1.10;;;23.40;63.90;;;;;;5103332;28;20032;-42
2021/07/28 07:44:58;;;;;;;1.70;1.15;;;23.40;64.00;;;;;;5103048;28;20032;-43
2021/07/28 07:47:24;;;;;;;2.15;1.17;;;23.40;64.00;;;;;;5103191;28;20032;-43
2021/07/28 07:49:50;;;;;;;1.40;1.20;;;23.40;64.00;;;;;;5102920;28;20077;-43
2021/07/28 07:52:17;;;;;;;1.15;1.00;;;23.40;64.00;;;;;;5103118;28;20035;-42
2021/07/28 07:54:43;;;;;;;1.48;1.00;;;23.40;64.10;;;;;;5102012;28;20027;-42
2021/07/28 07:57:09;;;;;;;0.82;0.82;;;23.40;64.00;;;;;;5102745;28;20072;-42
2021/07/28 07:59:37;;;;;;;1.35;1.10;;;23.40;64.10;;;;;;5102240;28;20024;-43
2021/07/28 08:02:03;;;;;;;1.65;1.23;;;23.40;64.10;;;;;;5103160;28;20038;-43
2021/07/28 08:04:29;;;;;;;1.37;1.10;;;23.40;64.10;;;;;;5102953;28;20035;-43
2021/07/28 08:06:55;;;;;;;1.33;1.02;;;23.40;64.10;;;;;;5102034;28;20272;-42
2021/07/28 08:09:22;;;;;;;1.70;1.27;;;23.40;64.20;;;;;;5102274;28;20028;-42
2021/07/28 08:11:48;;;;;;;1.50;1.25;;;23.40;64.20;;;;;;5099820;28;20115;-42
2021/07/28 08:14:14;;;;;;;2.15;1.40;;;23.40;64.30;;;;;;5084205;28;20039;-43
2021/07/28 08:16:40;;;;;;;1.42;1.20;;;23.40;64.20;;;;;;5082649;28;20068;-43
2021/07/28 08:19:06;;;;;;;3.05;1.50;;;23.40;64.20;;;;;;5101134;28;20031;-42
2021/07/28 08:21:33;;;;;;;1.27;1.02;;;23.40;64.20;;;;;;5102416;28;20027;-43
2021/07/28 08:23:59;;;;;;;1.60;1.20;;;23.40;64.40;;;;;;5102736;28;20030;-42
2021/07/28 08:26:25;;;;;;;1.55;1.23;;;23.40;64.30;;;;;;5102639;28;20086;-43
2021/07/28 08:28:52;;;;;;;2.13;1.42;;;23.40;64.50;;;;;;5102789;28;20039;-43
2021/07/28 08:31:18;;;;;;;1.70;1.20;;;23.40;64.40;;;;;;5102257;28;20027;-42
2021/07/28 08:33:44;;;;;;;2.38;1.00;;;23.40;64.50;;;;;;5102087;28;20028;-43
2021/07/28 08:36:11;;;;;;;1.50;1.20;;;23.40;64.50;;;;;;5102906;28;20043;-43
2021/07/28 08:38:37;;;;;;;1.35;1.20;;;23.40;64.50;;;;;;5106528;28;20024;-43
2021/07/28 08:41:04;;;;;;;1.20;1.10;;;23.40;64.60;;;;;;5106552;28;20031;-42
2021/07/28 08:43:37;;;;;;;2.10;1.20;;;23.40;64.50;;;;;;5106553;28;20016;-43
2021/07/28 08:46:07;;;;;;;1.27;1.17;;;23.40;64.60;;;;;;5088164;28;20525;-43
2021/07/28 08:48:34;;;;;;;1.77;1.40;;;23.40;64.50;;;;;;5106231;28;20755;-43
2021/07/28 08:51:02;;;;;;;1.48;1.30;;;23.40;64.80;;;;;;5106202;28;20024;-42
2021/07/28 08:53:28;;;;;;;1.35;1.20;;;23.40;64.60;;;;;;5100238;28;20031;-43
2021/07/28 08:55:59;;;;;;;1.70;1.40;;;23.40;64.60;;;;;;5106526;28;20159;-43
2021/07/28 08:58:26;;;;;;;1.33;1.23;;;23.40;64.70;;;;;;5106045;28;20040;-42
2021/07/28 09:00:53;;;;;;;1.40;1.17;;;23.40;64.80;;;;;;5087597;28;20048;-42
2021/07/28 09:03:19;;;;;;;2.08;1.45;;;23.40;64.60;;;;;;5087992;28;20059;-43
2021/07/28 09:05:49;;;;;;;2.72;1.40;;;23.40;64.60;;;;;;5105509;28;20028;-43
2021/07/28 09:08:28;;;;;;;1.50;1.20;;;23.40;64.60;;;;;;5106036;28;20109;-42
2021/07/28 09:11:04;;;;;;;2.05;1.27;;;23.40;64.70;;;;;;5105715;28;20821;-42
2021/07/28 09:13:41;;;;;;;2.10;1.50;;;23.40;64.70;;;;;;5105919;28;20130;-42
2021/07/28 09:16:09;;;;;;;2.35;1.17;;;23.40;64.90;;;;;;5090695;28;20028;-41
2021/07/28 09:18:36;;;;;;;1.30;1.20;;;23.40;64.90;;;;;;5106006;28;20032;-43
2021/07/28 09:21:04;;;;;;;2.30;1.15;;;23.40;64.90;;;;;;5087564;28;20116;-43
2021/07/28 09:23:39;;;;;;;1.75;1.13;;;23.40;65.00;;;;;;5105944;28;20090;-42
2021/07/28 09:26:25;;;;;;;2.17;1.15;;;23.40;65.00;;;;;;5105859;28;20035;-43
2021/07/28 09:29:21;;;;;;;1.30;1.20;;;23.40;64.90;;;;;;5065686;28;20093;-43
2021/07/28 09:31:52;;;;;;;1.88;1.30;;;23.40;64.90;;;;;;5105347;28;20055;-42
2021/07/28 09:34:21;;;;;;;2.35;1.38;;;23.40;64.90;;;;;;5105450;28;20020;-43
2021/07/28 09:36:55;;;;;;;2.15;1.15;;;23.40;64.80;;;;;;5104163;28;20058;-43
2021/07/28 09:39:25;;;;;;;1.83;1.30;;;23.40;64.90;;;;;;5087868;28;20082;-42
2021/07/28 09:41:53;;;;;;;1.33;1.10;;;23.40;64.80;;;;;;5102519;28;20051;-43
2021/07/28 09:44:29;;;;;;;1.23;1.10;;;23.40;64.90;;;;;;5104938;28;20841;-43
2021/07/28 09:47:12;;;;;;;1.60;1.20;;;23.40;64.80;;;;;;5104380;28;20039;-43
2021/07/28 09:49:41;;;;;;;1.33;1.23;;;23.40;64.90;;;;;;5103934;28;20057;-43
2021/07/28 09:52:25;;;;;;;1.45;1.25;;;23.40;64.90;;;;;;5104420;28;20032;-42
2021/07/28 09:54:53;;;;;;;1.35;1.20;;;23.40;65.00;;;;;;5104965;28;20035;-43
2021/07/28 09:57:20;;;;;;;1.85;1.10;;;23.40;65.00;;;;;;5105039;28;20031;-43
2021/07/28 09:59:55;;;;;;;1.48;1.30;;;23.40;65.00;;;;;;5104063;28;20062;-43
2021/07/28 10:02:22;;;;;;;1.33;1.20;;;23.40;65.00;;;;;;5102823;28;20488;-43
2021/07/28 10:04:49;;;;;;;1.70;1.13;;;23.40;65.10;;;;;;5104556;28;20024;-43
2021/07/28 10:07:16;;;;;;;;;;;23.40;65.10;;;;;;5085917;28;20063;-41
2021/07/28 10:09:43;;;;;;;1.40;1.30;;;23.40;65.10;;;;;;5102846;28;19916;-42
2021/07/28 10:12:10;;;;;;;2.75;1.00;;;23.40;65.20;;;;;;5084679;28;20016;-41
2021/07/28 10:14:36;;;;;;;1.80;1.25;;;23.40;65.20;;;;;;5085885;28;20590;-41
2021/07/28 10:17:04;;;;;;;2.35;1.38;;;23.40;65.30;;;;;;5086404;28;20040;-41
2021/07/28 10:19:32;;;;;;;1.30;1.20;;;23.40;65.20;;;;;;5086328;28;20821;-42
2021/07/28 10:21:58;;;;;;;1.40;1.30;;;23.40;65.20;;;;;;5103645;28;20020;-42
2021/07/28 10:24:24;;;;;;;1.52;1.25;;;23.40;65.20;;;;;;5086136;28;20031;-41
2021/07/28 10:26:51;;;;;;;1.75;1.33;;;23.40;65.20;;;;;;5104168;28;20043;-41
2021/07/28 10:29:17;;;;;;;1.40;1.25;;;23.40;65.20;;;;;;5086077;28;20078;-41
2021/07/28 10:31:48;;;;;;;1.58;1.23;;;23.40;65.10;;;;;;5085383;28;20028;-41
2021/07/28 10:34:31;;;;;;;2.67;1.42;;;23.40;65.20;;;;;;5104346;28;20063;-40
2021/07/28 10:37:01;;;;;;;1.50;1.25;;;23.40;65.10;;;;;;5083148;28;20134;-41
2021/07/28 10:39:36;;;;;;;1.35;1.25;;;23.40;65.10;;;;;;5104382;28;20030;-42
2021/07/28 10:42:18;;;;;;;1.65;1.50;;;23.40;65.30;;;;;;5088361;28;20043;-42
2021/07/28 10:45:11;;;;;;;1.88;1.20;;;23.40;65.30;;;;;;5103401;28;20035;-42
2021/07/28 10:47:37;;;;;;;1.52;1.25;;;23.40;65.40;;;;;;5099907;28;20040;-41
2021/07/28 10:50:07;;;;;;;1.48;1.20;;;23.50;65.50;;;;;;5104003;28;20024;-41
2021/07/28 10:52:47;;;;;;;1.60;1.30;;;23.40;65.40;;;;;;5103562;28;20012;-41
2021/07/28 10:55:33;;;;;;;1.65;1.50;;;23.40;65.50;;;;;;5098058;28;20036;-41
2021/07/28 10:58:11;;;;;;;3.20;1.38;;;23.40;65.60;;;;;;5103782;28;20028;-42
2021/07/28 11:00:43;;;;;;;1.30;1.13;;;23.40;65.60;;;;;;5102365;28;20040;-42
2021/07/28 11:03:09;;;;;;;1.60;1.38;;;23.40;65.50;;;;;;5103044;28;20056;-42
2021/07/28 11:05:39;;;;;;;1.50;1.30;;;23.40;65.50;;;;;;5102803;28;20043;-40
2021/07/28 11:08:05;;;;;;;2.53;1.27;;;23.40;66.20;;;;;;5103320;28;20079;-42
2021/07/28 11:10:42;;;;;;;1.50;1.30;;;23.40;65.40;;;;;;5103364;28;20043;-41
2021/07/28 11:13:09;;;;;;;1.23;1.10;;;23.40;65.40;;;;;;5083249;28;20031;-41
2021/07/28 11:15:36;;;;;;;2.30;1.20;;;23.40;65.50;;;;;;5103440;28;20035;-44
2021/07/28 11:18:02;;;;;;;1.20;1.10;;;23.40;65.50;;;;;;5102550;28;20032;-43
2021/07/28 11:20:32;;;;;;;1.45;1.35;;;23.40;65.40;;;;;;5084091;28;20047;-44
2021/07/28 11:25:49;;;;;;;1.38;1.20;;;23.40;65.50;;;;;;5103365;28;20028;-42
2021/07/28 11:28:24;;;;;;;1.27;1.17;;;23.50;65.60;;;;;;5103200;28;20034;-42
2021/07/28 11:31:22;;;;;;;1.50;1.33;;;23.40;65.60;;;;;;5103028;28;20095;-41
2021/07/28 11:33:48;;;;;;;1.75;1.48;;;23.50;65.70;;;;;;5101535;28;20082;-42
2021/07/28 11:36:17;;;;;;;1.50;1.23;;;23.50;65.80;;;;;;5102720;28;20043;-41
2021/07/28 11:38:44;;;;;;;1.55;1.17;;;23.50;65.80;;;;;;5102280;28;20046;-42
2021/07/28 11:41:10;;;;;;;1.50;1.30;;;23.50;65.80;;;;;;5103307;28;20055;-41
2021/07/28 11:43:41;;;;;;;1.33;1.15;;;23.50;65.80;;;;;;5102845;28;20024;-42
2021/07/28 11:46:17;;;;;;;1.70;1.60;;;23.50;65.70;;;;;;5102842;28;20032;-42
2021/07/28 11:48:50;;;;;;;1.40;1.20;;;23.50;65.70;;;;;;5103117;28;20024;-41
2021/07/28 11:51:27;;;;;;;1.80;1.30;;;23.50;65.70;;;;;;5102059;28;20400;-42
2021/07/28 11:54:09;;;;;;;1.50;1.38;;;23.50;65.70;;;;;;5102421;28;20016;-41
2021/07/28 11:56:36;;;;;;;2.15;1.40;;;23.50;65.70;;;;;;5102646;28;20039;-41
2021/07/28 11:59:02;;;;;;;1.47;1.30;;;23.50;65.70;;;;;;5083936;28;20084;-42
2021/07/28 12:01:32;;;;;;;2.83;1.50;;;23.50;65.70;;;;;;5102239;28;20051;-42
2021/07/28 12:04:08;;;;;;;1.63;1.50;;;23.50;65.70;;;;;;5102118;28;20024;-41
2021/07/28 12:06:38;;;;;;;1.88;1.60;;;23.50;65.70;;;;;;5101808;28;20020;-42
2021/07/28 12:09:11;;;;;;;1.10;1.00;;;23.50;65.70;;;;;;5102868;28;20096;-42
2021/07/28 12:12:02;;;;;;;1.77;1.42;;;23.50;66.50;;;;;;5102286;28;20028;-42
2021/07/28 12:14:38;;;;;;;1.33;1.23;;;23.50;65.90;;;;;;5101234;28;20079;-42
2021/07/28 12:17:13;;;;;;;1.80;1.40;;;23.50;65.90;;;;;;5102401;28;20090;-40
2021/07/28 12:19:41;;;;;;;1.98;1.45;;;23.50;66.00;;;;;;5102528;28;20024;-42
2021/07/28 12:22:11;;;;;;;2.00;1.50;;;23.50;66.00;;;;;;5083713;28;20034;-41
2021/07/28 12:24:40;;;;;;;1.40;1.30;;;23.50;66.00;;;;;;5084440;28;20020;-41
2021/07/28 12:27:34;;;;;;;1.30;1.20;;;23.50;66.00;;;;;;5102268;28;20027;-42
2021/07/28 12:30:06;;;;;;;1.25;1.15;;;23.50;66.00;;;;;;5094647;28;20070;-41
2021/07/28 12:32:45;;;;;;;1.50;1.40;;;23.50;66.00;;;;;;5101783;28;20053;-42
2021/07/28 12:35:15;;;;;;;1.30;1.20;;;23.50;65.90;;;;;;5102223;28;20027;-42
2021/07/28 12:37:41;;;;;;;1.70;1.48;;;23.50;66.00;;;;;;5099593;28;20059;-42
2021/07/28 12:40:08;;;;;;;1.60;1.40;;;23.50;65.90;;;;;;5102127;28;20020;-42
2021/07/28 12:42:34;;;;;;;1.80;1.20;;;23.50;65.90;;;;;;5101787;28;20397;-41
2021/07/28 12:45:01;;;;;;;1.67;1.42;;;23.50;65.80;;;;;;5102173;28;20563;-40
2021/07/28 12:47:27;;;;;;;1.30;1.20;;;23.50;65.90;;;;;;5102014;28;20035;-42
2021/07/28 12:49:53;;;;;;;1.40;1.30;;;23.60;66.00;;;;;;5102409;28;20013;-42
2021/07/28 12:52:20;;;;;;;1.40;1.30;;;23.60;65.90;;;;;;5101127;28;20035;-41
2021/07/28 12:54:46;;;;;;;1.40;1.30;;;23.60;66.00;;;;;;5101295;28;20031;-46
2021/07/28 12:57:12;;;;;;;1.52;1.42;;;23.60;66.10;;;;;;5101635;28;20058;-42
2021/07/28 12:59:38;;;;;;;1.67;1.40;;;23.60;66.10;;;;;;5101272;28;20032;-42